Details for AirAsia Thailand at VTCC




Go Back


Latest METAR
Local Time

VTCC 221730Z 00000KT 9999 FEW035 26/22 Q1012 NOSIG

23/05/2018, 00:56:44

Description
Results
AirAsia Thailand Logo
Number of Pilots based at VTCC
0 Pilots Based here
Number of AirAsia Thailand Flights Departed from VTCC
0 Flights Departed
Number of AirAsia Thailand Flights Arrived at VTCC
0 Flights Arrived
Number of AirAsia Thailand Schedules Departing from VTCC
34 Schedules
Number of AirAsia Thailand Schedules Arriving at VTCC
34 Schedules
Number of AirAsia Thailand Schedules Departing from VTCC availible today
34 Schedules Today
Number of AirAsia Thailand Schedules Arriving at VTCC availible today
34 Schedules Today
Average Landing Rate at VTCC
0 fpm
AirAsia Thailand Average Landing Rate at VTCC
0 fpm
Total Fuel Purchased at VTCC by AirAsia Thailand
0.00 kgs / 0.00 lbs

Pilots Based at VTCC


Pilot ID
Pilot Name
Pilot Rank
No. of Flights
No. of Flying Hours
There are no pilots assigned to this hub!   Will you be the first?
Content